Zemst, Belgium
Current Conditions -  °F | °C
As of 10:50 PM on Thursday 27 Nov 2014 (Local Time) from EBBR Reporting Station
Broken Clouds Broken Clouds  
Wind Chill: 45°   Ceiling: 2000
Heat Index: 48°   Visibility: 6mi
Dew Point: 46°   Wind: 7mph
Humidity: 93%   Direction: 130°SE
Pressure: 29.68"   Gusts: NA
Location:  50.98°N, 4.46°E
Report Text: EBBR 272150Z 13006KT 9999 FEW014 BKN020 09/08 Q1005 NOSIG
Loading
Personal Weather Stations






























Interactive Weather Map New forecast layout! Learn more

10-Day Weather Forecast

Advertisements
Track Severe Weather on mobile